createdAt,value
2019-02-25T00:00:38.978Z,9.5
2019-02-25T00:01:38.785Z,6.6
2019-02-25T00:02:38.858Z,3.9
2019-02-25T00:03:38.806Z,6.6
2019-02-25T00:04:38.787Z,9.5
2019-02-25T00:05:38.829Z,6.6
2019-02-25T00:06:38.838Z,9.5
2019-02-25T00:07:38.787Z,9.5
2019-02-25T00:08:38.871Z,3.9
2019-02-25T00:09:38.812Z,6.6
2019-02-25T00:10:38.757Z,9.5
2019-02-25T00:11:38.825Z,9.5
2019-02-25T00:12:38.809Z,9.5
2019-02-25T00:13:38.873Z,9.5
2019-02-25T00:14:38.818Z,12.4
2019-02-25T00:15:38.779Z,12.4
2019-02-25T00:16:38.898Z,12.4
2019-02-25T00:17:38.805Z,12.4
2019-02-25T00:18:38.828Z,9.5
2019-02-25T00:19:38.827Z,6.6
2019-02-25T00:20:38.900Z,9.5
2019-02-25T00:21:38.794Z,9.5
2019-02-25T00:22:38.817Z,9.5
2019-02-25T00:23:38.841Z,6.6
2019-02-25T00:24:38.818Z,3.9
2019-02-25T00:25:38.879Z,3.9
2019-02-25T00:26:38.790Z,6.6
2019-02-25T00:27:38.791Z,6.6
2019-02-25T00:28:38.774Z,0
2019-02-25T00:29:38.830Z,0
2019-02-25T00:30:38.820Z,0
2019-02-25T00:31:38.803Z,0
2019-02-25T00:32:38.790Z,0
2019-02-25T00:33:38.838Z,1.8
2019-02-25T00:34:38.896Z,1.8
2019-02-25T00:35:38.800Z,3.9
2019-02-25T00:36:38.826Z,3.9
2019-02-25T00:37:38.820Z,3.9
2019-02-25T00:38:38.982Z,3.9
2019-02-25T00:39:38.891Z,6.6
2019-02-25T00:40:38.863Z,6.6
2019-02-25T00:41:38.902Z,6.6
2019-02-25T00:42:38.797Z,9.5
2019-02-25T00:43:38.791Z,3.9
2019-02-25T00:44:38.835Z,6.6
2019-02-25T00:45:38.888Z,6.6
2019-02-25T00:46:38.814Z,6.6
2019-02-25T00:47:38.792Z,12.4
2019-02-25T00:48:38.779Z,15.4
2019-02-25T00:49:38.982Z,15.4
2019-02-25T00:50:38.861Z,15.4
2019-02-25T00:51:38.797Z,15.4
2019-02-25T00:52:38.789Z,15.4
2019-02-25T00:53:38.780Z,12.4
2019-02-25T00:54:38.874Z,9.5
2019-02-25T00:55:38.803Z,9.5
2019-02-25T00:56:38.785Z,9.5
2019-02-25T00:57:38.785Z,9.5
2019-02-25T00:58:38.851Z,9.5
2019-02-25T00:59:38.767Z,9.5
2019-02-25T01:00:38.850Z,9.5
2019-02-25T01:01:38.800Z,9.5
2019-02-25T01:02:38.853Z,9.5
2019-02-25T01:03:38.798Z,9.5
2019-02-25T01:04:38.768Z,9.5
2019-02-25T01:05:38.803Z,9.5
2019-02-25T01:06:38.806Z,12.4
2019-02-25T01:07:38.881Z,12.4
2019-02-25T01:08:38.797Z,12.4
2019-02-25T01:09:38.764Z,12.4
2019-02-25T01:10:38.961Z,9.5
2019-02-25T01:11:38.830Z,6.6
2019-02-25T01:12:39.057Z,12.4
2019-02-25T01:13:38.792Z,12.4
2019-02-25T01:14:38.791Z,6.6
2019-02-25T01:15:38.755Z,6.6
2019-02-25T01:16:38.880Z,6.6
2019-02-25T01:17:38.812Z,6.6
2019-02-25T01:18:38.789Z,15.4
2019-02-25T01:19:38.777Z,15.4
2019-02-25T01:20:38.879Z,15.4
2019-02-25T01:21:38.877Z,9.5
2019-02-25T01:22:38.803Z,6.6
2019-02-25T01:23:38.785Z,12.4
2019-02-25T01:24:38.799Z,9.5
2019-02-25T01:25:38.918Z,6.6
2019-02-25T01:26:38.729Z,6.6
2019-02-25T01:27:38.778Z,27.3
2019-02-25T01:28:38.788Z,9.5
2019-02-25T01:29:38.775Z,9.5
2019-02-25T01:30:38.878Z,6.6
2019-02-25T01:31:38.930Z,9.5
2019-02-25T01:32:38.722Z,6.6
2019-02-25T01:33:38.764Z,6.6
2019-02-25T01:34:38.790Z,6.6
2019-02-25T01:35:38.940Z,6.6
2019-02-25T01:36:38.854Z,6.6
2019-02-25T01:37:38.754Z,6.6
2019-02-25T01:38:38.781Z,6.6
2019-02-25T01:39:38.756Z,9.5
2019-02-25T01:40:38.899Z,9.5
2019-02-25T01:41:38.770Z,12.4
2019-02-25T01:42:38.769Z,9.5
2019-02-25T01:43:38.816Z,6.6
2019-02-25T01:44:38.760Z,6.6
2019-02-25T01:45:38.850Z,1.8
2019-02-25T01:46:38.865Z,1.8
2019-02-25T01:47:38.772Z,6.6
2019-02-25T01:48:38.807Z,9.5
2019-02-25T01:49:38.784Z,6.6
2019-02-25T01:50:38.825Z,9.5
2019-02-25T01:51:38.787Z,9.5
2019-02-25T01:52:38.795Z,9.5
2019-02-25T01:53:38.731Z,6.6
2019-02-25T01:54:38.758Z,9.5
2019-02-25T01:55:38.756Z,9.5
2019-02-25T01:56:38.827Z,9.5
2019-02-25T01:57:38.775Z,9.5
2019-02-25T01:58:38.979Z,15.4
2019-02-25T01:59:38.732Z,15.4
2019-02-25T02:00:38.783Z,15.4
2019-02-25T02:01:38.759Z,12.4
2019-02-25T02:02:38.774Z,12.4
2019-02-25T02:03:38.833Z,12.4
2019-02-25T02:04:38.737Z,15.4
2019-02-25T02:05:38.756Z,15.4
2019-02-25T02:06:38.859Z,15.4
2019-02-25T02:07:38.750Z,18.3
2019-02-25T02:08:38.772Z,18.3
2019-02-25T02:09:38.847Z,18.3
2019-02-25T02:10:38.735Z,15.4
2019-02-25T02:11:38.776Z,15.4
2019-02-25T02:12:38.767Z,18.3
2019-02-25T02:13:38.755Z,18.3
2019-02-25T02:14:38.845Z,15.4
2019-02-25T02:15:38.738Z,15.4
2019-02-25T02:16:38.773Z,15.4
2019-02-25T02:17:38.749Z,15.4
2019-02-25T02:18:38.751Z,9.5
2019-02-25T02:19:38.828Z,15.4
2019-02-25T02:20:38.807Z,18.3
2019-02-25T02:21:38.725Z,15.4
2019-02-25T02:22:38.770Z,15.4
2019-02-25T02:23:38.763Z,12.4
2019-02-25T02:24:38.819Z,12.4
2019-02-25T02:25:40.213Z,12.4
2019-02-25T02:26:38.731Z,12.4
2019-02-25T02:27:38.758Z,12.4
2019-02-25T02:28:38.753Z,12.4
2019-02-25T02:29:38.803Z,12.4
2019-02-25T02:30:38.931Z,12.4
2019-02-25T02:31:38.756Z,9.5
2019-02-25T02:32:38.772Z,9.5
2019-02-25T02:33:38.733Z,9.5
2019-02-25T02:34:38.750Z,9.5
2019-02-25T02:35:38.846Z,12.4
2019-02-25T02:36:38.910Z,9.5
2019-02-25T02:37:38.717Z,6.6
2019-02-25T02:38:38.750Z,6.6
2019-02-25T02:39:38.731Z,6.6
2019-02-25T02:40:38.758Z,6.6
2019-02-25T02:41:38.830Z,6.6
2019-02-25T02:42:38.801Z,6.6
2019-02-25T02:43:38.682Z,6.6
2019-02-25T02:44:38.729Z,6.6
2019-02-25T02:45:38.755Z,9.5
2019-02-25T02:46:38.756Z,6.6
2019-02-25T02:47:38.902Z,9.5
2019-02-25T02:48:38.729Z,6.6
2019-02-25T02:49:38.736Z,6.6
2019-02-25T02:50:38.790Z,6.6
2019-02-25T02:51:38.743Z,6.6
2019-02-25T02:52:38.811Z,6.6
2019-02-25T02:53:38.758Z,9.5
2019-02-25T02:54:38.701Z,9.5
2019-02-25T02:55:38.719Z,9.5
2019-02-25T02:56:38.753Z,12.4
2019-02-25T02:57:38.915Z,9.5
2019-02-25T02:58:38.755Z,9.5
2019-02-25T02:59:38.694Z,12.4
2019-02-25T03:00:38.786Z,12.4
2019-02-25T03:01:38.733Z,12.4
2019-02-25T03:02:38.840Z,12.4
2019-02-25T03:03:38.739Z,12.4
2019-02-25T03:04:38.792Z,12.4
2019-02-25T03:05:38.711Z,12.4
2019-02-25T03:06:38.746Z,9.5
2019-02-25T03:07:38.807Z,9.5
2019-02-25T03:08:38.730Z,12.4
2019-02-25T03:09:38.736Z,12.4
2019-02-25T03:10:38.689Z,9.5
2019-02-25T03:11:38.719Z,6.6
2019-02-25T03:12:38.810Z,9.5
2019-02-25T03:13:38.808Z,9.5
2019-02-25T03:14:38.707Z,6.6
2019-02-25T03:15:38.686Z,6.6
2019-02-25T03:16:38.692Z,3.9
2019-02-25T03:17:38.745Z,6.6
2019-02-25T03:18:38.776Z,3.9
2019-02-25T03:19:38.718Z,6.6
2019-02-25T03:20:38.769Z,3.9
2019-02-25T03:21:38.724Z,3.9
2019-02-25T03:22:38.799Z,3.9
2019-02-25T03:23:38.724Z,3.9
2019-02-25T03:24:38.743Z,0
2019-02-25T03:25:38.804Z,0
2019-02-25T03:26:38.702Z,0
2019-02-25T03:27:40.374Z,0
2019-02-25T03:28:38.726Z,6.6
2019-02-25T03:29:38.736Z,9.5
2019-02-25T03:30:38.766Z,6.6
2019-02-25T03:31:38.700Z,6.6
2019-02-25T03:32:38.811Z,6.6
2019-02-25T03:33:38.722Z,6.6
2019-02-25T03:34:38.778Z,3.9
2019-02-25T03:35:38.710Z,3.9
2019-02-25T03:36:38.703Z,0
2019-02-25T03:37:38.698Z,0
2019-02-25T03:38:38.697Z,0
2019-02-25T03:39:38.931Z,3.9
2019-02-25T03:40:38.725Z,3.9
2019-02-25T03:41:38.716Z,3.9
2019-02-25T03:42:38.690Z,6.6
2019-02-25T03:43:38.678Z,6.6
2019-02-25T03:44:38.820Z,6.6
2019-02-25T03:45:38.720Z,6.6
2019-02-25T03:46:38.681Z,9.5
2019-02-25T03:47:38.723Z,9.5
2019-02-25T03:48:38.697Z,9.5
2019-02-25T03:49:38.881Z,6.6
2019-02-25T03:50:38.744Z,9.5
2019-02-25T03:51:38.715Z,9.5
2019-02-25T03:52:38.713Z,9.5
2019-02-25T03:53:38.683Z,9.5
2019-02-25T03:54:38.733Z,9.5
2019-02-25T03:55:38.842Z,9.5
2019-02-25T03:56:38.702Z,12.4
2019-02-25T03:57:38.690Z,12.4
2019-02-25T03:58:38.718Z,12.4
2019-02-25T03:59:38.749Z,9.5
2019-02-25T04:00:38.736Z,9.5
2019-02-25T04:01:38.692Z,6.6
2019-02-25T04:02:38.698Z,12.4
2019-02-25T04:03:38.714Z,12.4
2019-02-25T04:04:38.730Z,9.5
2019-02-25T04:05:38.696Z,9.5
2019-02-25T04:06:38.769Z,9.5
2019-02-25T04:07:38.684Z,9.5
2019-02-25T04:08:38.795Z,12.4
2019-02-25T04:09:38.799Z,12.4
2019-02-25T04:10:38.798Z,15.4
2019-02-25T04:11:38.753Z,15.4
2019-02-25T04:12:38.708Z,12.4
2019-02-25T04:13:38.700Z,12.4
2019-02-25T04:14:38.690Z,12.4
2019-02-25T04:15:38.739Z,12.4
2019-02-25T04:16:38.698Z,6.6
2019-02-25T04:17:38.682Z,6.6
2019-02-25T04:18:38.812Z,3.9
2019-02-25T04:19:38.694Z,3.9
2019-02-25T04:20:39.203Z,3.9
2019-02-25T04:21:38.653Z,3.9
2019-02-25T04:22:38.690Z,3.9
2019-02-25T04:23:38.783Z,3.9
2019-02-25T04:24:38.712Z,3.9
2019-02-25T04:25:38.676Z,6.6
2019-02-25T04:26:38.639Z,6.6
2019-02-25T04:27:38.666Z,6.6
2019-02-25T04:28:38.730Z,6.6
2019-02-25T04:29:38.706Z,6.6
2019-02-25T04:30:38.758Z,6.6
2019-02-25T04:31:38.665Z,6.6
2019-02-25T04:32:38.813Z,6.6
2019-02-25T04:33:38.660Z,6.6
2019-02-25T04:34:38.653Z,6.6
2019-02-25T04:35:38.690Z,6.6
2019-02-25T04:36:38.664Z,6.6
2019-02-25T04:37:38.730Z,6.6
2019-02-25T04:38:38.731Z,9.5
2019-02-25T04:39:38.684Z,3.9
2019-02-25T04:40:38.730Z,6.6
2019-02-25T04:41:38.704Z,3.9
2019-02-25T04:42:38.768Z,6.6
2019-02-25T04:43:38.670Z,6.6
2019-02-25T04:44:38.877Z,3.9
2019-02-25T04:45:38.832Z,3.9
2019-02-25T04:46:38.647Z,3.9
2019-02-25T04:47:38.672Z,6.6
2019-02-25T04:48:38.740Z,6.6
2019-02-25T04:49:38.693Z,9.5
2019-02-25T04:50:38.683Z,6.6
2019-02-25T04:51:38.675Z,6.6
2019-02-25T04:52:38.661Z,6.6
2019-02-25T04:53:38.708Z,6.6
2019-02-25T04:54:38.753Z,6.6
2019-02-25T04:55:38.874Z,6.6
2019-02-25T04:56:38.664Z,6.6
2019-02-25T04:57:38.684Z,9.5
2019-02-25T04:58:38.671Z,12.4
2019-02-25T04:59:38.709Z,9.5
2019-02-25T05:00:38.780Z,9.5
2019-02-25T05:01:38.678Z,6.6
2019-02-25T05:02:38.671Z,3.9
2019-02-25T05:03:38.707Z,1.8
2019-02-25T05:04:38.740Z,1.8
2019-02-25T05:05:38.626Z,3.9
2019-02-25T05:06:38.661Z,3.9
2019-02-25T05:07:38.722Z,6.6
2019-02-25T05:08:38.790Z,6.6
2019-02-25T05:09:38.658Z,6.6
2019-02-25T05:10:38.688Z,6.6
2019-02-25T05:11:38.722Z,6.6
2019-02-25T05:12:38.666Z,6.6
2019-02-25T05:13:38.754Z,9.5
2019-02-25T05:14:38.666Z,9.5
2019-02-25T05:15:38.710Z,9.5
2019-02-25T05:16:41.239Z,9.5
2019-02-25T05:17:38.673Z,12.4
2019-02-25T05:18:38.631Z,12.4
2019-02-25T05:19:38.662Z,12.4
2019-02-25T05:20:38.788Z,9.5
2019-02-25T05:21:38.644Z,9.5
2019-02-25T05:22:39.017Z,9.5
2019-02-25T05:23:38.696Z,9.5
2019-02-25T05:24:39.826Z,9.5
2019-02-25T05:25:38.668Z,9.5
2019-02-25T05:26:38.671Z,9.5
2019-02-25T05:27:38.764Z,9.5
2019-02-25T05:28:38.740Z,9.5
2019-02-25T05:29:38.667Z,6.6
2019-02-25T05:30:38.817Z,6.6
2019-02-25T05:31:38.611Z,6.6
2019-02-25T05:32:40.794Z,9.5
2019-02-25T05:33:38.651Z,9.5
2019-02-25T05:34:38.807Z,6.6
2019-02-25T05:35:38.768Z,6.6
2019-02-25T05:36:38.812Z,3.9
2019-02-25T05:37:38.613Z,12.4
2019-02-25T05:38:38.704Z,12.4
2019-02-25T05:39:38.628Z,12.4
2019-02-25T05:40:38.759Z,9.5
2019-02-25T05:41:38.730Z,9.5
2019-02-25T05:42:38.682Z,9.5
2019-02-25T05:43:38.634Z,6.6
2019-02-25T05:44:38.725Z,6.6
2019-02-25T05:45:38.652Z,6.6
2019-02-25T05:46:38.644Z,9.5
2019-02-25T05:47:38.665Z,9.5
2019-02-25T05:48:38.594Z,6.6
2019-02-25T05:49:38.714Z,9.5
2019-02-25T05:50:38.667Z,12.4
2019-02-25T05:51:38.654Z,12.4
2019-02-25T05:52:38.646Z,12.4
2019-02-25T05:53:38.610Z,9.5
2019-02-25T05:54:38.729Z,6.6
2019-02-25T05:55:38.634Z,12.4
2019-02-25T05:56:38.618Z,15.4
2019-02-25T05:57:38.639Z,15.4
2019-02-25T05:58:38.653Z,15.4
2019-02-25T05:59:38.937Z,15.4
2019-02-25T06:01:06.539Z,15.4
2019-02-25T06:01:38.652Z,15.4
2019-02-25T06:02:38.628Z,15.4
2019-02-25T06:03:38.710Z,12.4
2019-02-25T06:04:40.056Z,12.4
2019-02-25T06:05:38.700Z,15.4
2019-02-25T06:06:38.604Z,15.4
2019-02-25T06:07:38.637Z,15.4
2019-02-25T06:08:38.605Z,15.4
2019-02-25T06:09:38.646Z,15.4
2019-02-25T06:10:38.689Z,18.3
2019-02-25T06:11:38.623Z,21.3
2019-02-25T06:12:38.636Z,18.3
2019-02-25T06:13:39.474Z,18.3
2019-02-25T06:14:38.617Z,15.4
2019-02-25T06:15:38.707Z,15.4
2019-02-25T06:16:38.628Z,18.3
2019-02-25T06:17:38.584Z,18.3
2019-02-25T06:18:38.615Z,15.4
2019-02-25T06:19:38.630Z,15.4
2019-02-25T06:20:38.732Z,18.3
2019-02-25T06:21:38.580Z,18.3
2019-02-25T06:22:38.605Z,18.3
2019-02-25T06:23:38.636Z,24.3
2019-02-25T06:24:38.639Z,24.3
2019-02-25T06:25:38.688Z,24.3
2019-02-25T06:26:40.056Z,21.3
2019-02-25T06:27:38.788Z,24.3
2019-02-25T06:28:38.642Z,24.3
2019-02-25T06:29:38.633Z,24.3
2019-02-25T06:30:38.621Z,27.3
2019-02-25T06:31:38.585Z,24.3
2019-02-25T06:32:38.698Z,24.3
2019-02-25T06:33:38.603Z,27.3
2019-02-25T06:34:38.618Z,27.3
2019-02-25T06:35:38.642Z,24.3
2019-02-25T06:36:38.585Z,24.3
2019-02-25T06:37:38.643Z,24.3
2019-02-25T06:38:38.607Z,24.3
2019-02-25T06:39:38.613Z,24.3
2019-02-25T06:40:38.684Z,24.3
2019-02-25T06:41:38.605Z,27.3
2019-02-25T06:42:38.710Z,24.3
2019-02-25T06:43:38.552Z,24.3
2019-02-25T06:44:38.617Z,18.3
2019-02-25T06:45:38.690Z,15.4
2019-02-25T06:46:38.613Z,12.4
2019-02-25T06:47:38.598Z,15.4
2019-02-25T06:48:38.571Z,12.4
2019-02-25T06:49:38.632Z,12.4
2019-02-25T06:50:38.736Z,18.3
2019-02-25T06:51:38.616Z,18.3
2019-02-25T06:52:38.596Z,18.3
2019-02-25T06:53:38.642Z,21.3
2019-02-25T06:54:38.606Z,18.3
2019-02-25T06:55:38.604Z,18.3
2019-02-25T06:56:38.585Z,21.3
2019-02-25T06:57:38.653Z,18.3
2019-02-25T06:58:38.669Z,15.4
2019-02-25T06:59:38.576Z,12.4
2019-02-25T07:00:38.600Z,12.4
2019-02-25T07:01:38.672Z,18.3
2019-02-25T07:02:38.596Z,18.3
2019-02-25T07:03:38.615Z,15.4
2019-02-25T07:04:38.654Z,15.4
2019-02-25T07:05:38.676Z,15.4
2019-02-25T07:06:38.588Z,15.4
2019-02-25T07:07:38.682Z,15.4
2019-02-25T07:08:38.605Z,18.3
2019-02-25T07:09:40.144Z,15.4
2019-02-25T07:10:38.699Z,15.4
2019-02-25T07:11:38.575Z,15.4
2019-02-25T07:12:38.577Z,15.4
2019-02-25T07:13:38.589Z,15.4
2019-02-25T07:14:38.601Z,15.4
2019-02-25T07:15:38.660Z,15.4
2019-02-25T07:16:38.607Z,15.4
2019-02-25T07:17:38.588Z,12.4
2019-02-25T07:18:39.803Z,12.4
2019-02-25T07:19:38.608Z,12.4
2019-02-25T07:20:38.641Z,9.5
2019-02-25T07:21:38.636Z,9.5
2019-02-25T07:22:38.591Z,6.6
2019-02-25T07:23:40.431Z,6.6
2019-02-25T07:24:38.611Z,3.9
2019-02-25T07:25:38.587Z,3.9
2019-02-25T07:26:38.647Z,1.8
2019-02-25T07:27:38.713Z,0
2019-02-25T07:28:38.576Z,0
2019-02-25T07:29:38.679Z,0
2019-02-25T07:30:38.629Z,0
2019-02-25T07:31:38.654Z,0
2019-02-25T07:32:38.579Z,0
2019-02-25T07:33:38.591Z,0
2019-02-25T07:34:38.586Z,0
2019-02-25T07:35:38.582Z,0
2019-02-25T07:36:38.676Z,0
2019-02-25T07:37:38.554Z,0
2019-02-25T07:38:41.075Z,6.6
2019-02-25T07:39:38.594Z,6.6
2019-02-25T07:40:38.659Z,6.6
2019-02-25T07:41:39.564Z,3.9
2019-02-25T07:42:38.709Z,6.6
2019-02-25T07:43:38.666Z,3.9
2019-02-25T07:44:38.589Z,3.9
2019-02-25T07:45:38.614Z,6.6
2019-02-25T07:46:38.601Z,3.9
2019-02-25T07:47:38.600Z,3.9
2019-02-25T07:48:38.739Z,3.9
2019-02-25T07:49:38.694Z,0
2019-02-25T07:50:48.205Z,0
2019-02-25T07:51:38.588Z,0
2019-02-25T07:52:38.602Z,0
2019-02-25T07:53:38.568Z,1.8
2019-02-25T07:54:38.704Z,0
2019-02-25T07:55:38.582Z,0
2019-02-25T07:56:38.573Z,0
2019-02-25T07:57:38.585Z,0
2019-02-25T07:58:38.664Z,0
2019-02-25T07:59:38.534Z,0
2019-02-25T08:00:38.597Z,0
2019-02-25T08:01:38.574Z,0
2019-02-25T08:02:38.630Z,0
2019-02-25T08:03:38.604Z,0
2019-02-25T08:04:38.528Z,0
2019-02-25T08:05:38.583Z,0
2019-02-25T08:06:38.665Z,0
2019-02-25T08:07:38.600Z,0
2019-02-25T08:08:38.603Z,0
2019-02-25T08:09:38.575Z,0
2019-02-25T08:10:38.690Z,0
2019-02-25T08:11:38.652Z,0
2019-02-25T08:12:38.637Z,0
2019-02-25T08:13:38.585Z,0
2019-02-25T08:14:38.658Z,0
2019-02-25T08:15:38.568Z,0
2019-02-25T08:16:38.597Z,0
2019-02-25T08:17:38.569Z,0
2019-02-25T08:18:38.599Z,0
2019-02-25T08:19:38.723Z,0
2019-02-25T08:20:39.727Z,0
2019-02-25T08:21:38.586Z,0
2019-02-25T08:22:38.610Z,0
2019-02-25T08:23:38.569Z,0
2019-02-25T08:24:38.656Z,0
2019-02-25T08:25:38.584Z,0
2019-02-25T08:26:38.625Z,0
2019-02-25T08:27:38.575Z,0
2019-02-25T08:28:38.572Z,0
2019-02-25T08:29:38.603Z,0
2019-02-25T08:30:38.656Z,0
2019-02-25T08:31:38.561Z,6.6
2019-02-25T08:32:38.743Z,6.6
2019-02-25T08:33:38.673Z,9.5
2019-02-25T08:34:38.668Z,9.5
2019-02-25T08:35:38.572Z,6.6
2019-02-25T08:36:38.849Z,3.9
2019-02-25T08:37:38.563Z,6.6
2019-02-25T08:38:38.666Z,18.3
2019-02-25T08:39:38.655Z,6.6
2019-02-25T08:40:38.641Z,3.9
2019-02-25T08:41:38.591Z,3.9
2019-02-25T08:42:38.629Z,3.9
2019-02-25T08:43:38.576Z,3.9
2019-02-25T08:44:38.590Z,3.9
2019-02-25T08:45:38.568Z,3.9
2019-02-25T08:46:38.654Z,3.9
2019-02-25T08:47:38.592Z,0
2019-02-25T08:48:38.574Z,6.6
2019-02-25T08:49:38.737Z,6.6
2019-02-25T08:50:38.699Z,6.6
2019-02-25T08:51:38.602Z,6.6
2019-02-25T08:52:38.651Z,6.6
2019-02-25T08:53:38.543Z,3.9
2019-02-25T08:54:38.590Z,0
2019-02-25T08:55:38.587Z,0
2019-02-25T08:56:38.660Z,0
2019-02-25T08:57:38.746Z,1.8
2019-02-25T08:58:38.583Z,1.8
2019-02-25T08:59:38.589Z,6.6
2019-02-25T09:00:38.611Z,3.9
2019-02-25T09:01:39.785Z,1.8
2019-02-25T09:02:38.599Z,1.8
2019-02-25T09:03:38.591Z,27.3
2019-02-25T09:04:38.582Z,9.5
2019-02-25T09:05:38.597Z,9.5
2019-02-25T09:06:38.693Z,6.6
2019-02-25T09:07:38.700Z,6.6
2019-02-25T09:08:38.605Z,3.9
2019-02-25T09:09:38.577Z,6.6
2019-02-25T09:10:38.732Z,6.6
2019-02-25T09:11:38.587Z,6.6
2019-02-25T09:12:39.730Z,6.6
2019-02-25T09:13:38.597Z,6.6
2019-02-25T09:14:38.593Z,9.5
2019-02-25T09:15:38.569Z,6.6
2019-02-25T09:16:38.583Z,9.5
2019-02-25T09:17:38.801Z,6.6
2019-02-25T09:18:38.613Z,3.9
2019-02-25T09:19:38.588Z,3.9
2019-02-25T09:20:38.579Z,9.5
2019-02-25T09:21:38.569Z,9.5
2019-02-25T09:22:38.663Z,6.6
2019-02-25T09:23:38.593Z,12.4
2019-02-25T09:24:40.275Z,12.4
2019-02-25T09:25:38.583Z,9.5
2019-02-25T09:26:38.568Z,9.5
2019-02-25T09:27:38.599Z,9.5
2019-02-25T09:28:38.784Z,15.4
2019-02-25T09:29:38.605Z,12.4
2019-02-25T09:30:38.594Z,15.4
2019-02-25T09:31:38.557Z,15.4
2019-02-25T09:32:38.611Z,12.4
2019-02-25T09:33:38.655Z,9.5
2019-02-25T09:34:38.608Z,9.5
2019-02-25T09:35:38.583Z,12.4
2019-02-25T09:36:38.764Z,15.4
2019-02-25T09:37:38.569Z,12.4
2019-02-25T09:38:38.584Z,18.3
2019-02-25T09:39:38.691Z,12.4
2019-02-25T09:40:38.610Z,9.5
2019-02-25T09:41:38.603Z,6.6
2019-02-25T09:42:38.553Z,9.5
2019-02-25T09:43:38.573Z,6.6
2019-02-25T09:44:39.390Z,9.5
2019-02-25T09:45:38.592Z,6.6
2019-02-25T09:46:38.596Z,15.4
2019-02-25T09:47:38.756Z,15.4
2019-02-25T09:48:38.589Z,15.4
2019-02-25T09:49:38.630Z,12.4
2019-02-25T09:50:38.624Z,9.5
2019-02-25T09:51:38.570Z,15.4
2019-02-25T09:52:38.598Z,18.3
2019-02-25T09:53:38.565Z,15.4
2019-02-25T09:54:38.657Z,15.4
2019-02-25T09:55:38.739Z,15.4
2019-02-25T09:56:38.641Z,12.4
2019-02-25T09:57:38.580Z,9.5
2019-02-25T09:58:38.604Z,12.4
2019-02-25T09:59:38.632Z,12.4
2019-02-25T10:00:38.714Z,9.5
2019-02-25T10:01:38.600Z,6.6
2019-02-25T10:02:38.565Z,18.3
2019-02-25T10:03:38.564Z,15.4
2019-02-25T10:04:38.548Z,9.5
2019-02-25T10:05:38.653Z,6.6
2019-02-25T10:06:38.580Z,9.5
2019-02-25T10:07:38.593Z,9.5
2019-02-25T10:08:38.633Z,12.4
2019-02-25T10:09:38.575Z,12.4
2019-02-25T10:10:38.672Z,9.5
2019-02-25T10:11:38.586Z,9.5
2019-02-25T10:12:38.608Z,9.5
2019-02-25T10:13:38.700Z,15.4
2019-02-25T10:14:38.561Z,15.4
2019-02-25T10:15:38.557Z,15.4
2019-02-25T10:16:38.665Z,12.4
2019-02-25T10:17:38.590Z,9.5
2019-02-25T10:18:40.000Z,12.4
2019-02-25T10:19:38.583Z,15.4
2019-02-25T10:20:38.874Z,18.3
2019-02-25T10:21:38.583Z,21.3
2019-02-25T10:22:38.599Z,15.4
2019-02-25T10:23:40.431Z,12.4
2019-02-25T10:24:39.900Z,9.5
2019-02-25T10:25:38.588Z,15.4
2019-02-25T10:26:38.650Z,12.4
2019-02-25T10:27:38.698Z,12.4
2019-02-25T10:28:38.611Z,12.4
2019-02-25T10:29:38.598Z,21.3
2019-02-25T10:30:38.667Z,15.4
2019-02-25T10:31:41.613Z,18.3
2019-02-25T10:32:38.693Z,15.4
2019-02-25T10:33:38.595Z,6.6
2019-02-25T10:34:38.757Z,9.5
2019-02-25T10:35:38.602Z,15.4
2019-02-25T10:36:38.604Z,12.4
2019-02-25T10:37:43.606Z,12.4
2019-02-25T10:38:38.838Z,12.4
2019-02-25T10:39:38.604Z,9.5
2019-02-25T10:40:38.628Z,9.5
2019-02-25T10:41:38.593Z,6.6
2019-02-25T10:42:39.046Z,9.5
2019-02-25T10:43:38.566Z,15.4
2019-02-25T10:44:41.047Z,12.4
2019-02-25T10:45:43.314Z,9.5
2019-02-25T10:46:42.802Z,9.5
2019-02-25T10:47:38.636Z,12.4
2019-02-25T10:48:38.557Z,12.4
2019-02-25T10:49:38.664Z,12.4
2019-02-25T10:50:40.900Z,12.4
2019-02-25T10:51:43.786Z,15.4
2019-02-25T10:52:41.148Z,9.5
2019-02-25T10:53:38.555Z,12.4
2019-02-25T10:54:38.631Z,18.3
2019-02-25T10:55:39.995Z,18.3
2019-02-25T10:56:38.584Z,18.3
2019-02-25T10:57:38.676Z,15.4
2019-02-25T10:58:38.558Z,15.4
2019-02-25T10:59:42.453Z,18.3
2019-02-25T11:00:41.640Z,15.4
2019-02-25T11:01:41.353Z,15.4
2019-02-25T11:02:46.779Z,18.3
2019-02-25T11:03:38.559Z,12.4
2019-02-25T11:04:38.565Z,18.3
2019-02-25T11:05:38.615Z,15.4
2019-02-25T11:06:39.009Z,15.4
2019-02-25T11:07:42.015Z,24.3
2019-02-25T11:08:41.476Z,15.4
2019-02-25T11:09:40.218Z,15.4
2019-02-25T11:10:38.668Z,21.3
2019-02-25T11:11:38.651Z,18.3
2019-02-25T11:12:40.442Z,24.3
2019-02-25T11:13:38.620Z,18.3
2019-02-25T11:14:43.297Z,6.6
2019-02-25T11:15:42.214Z,18.3
2019-02-25T11:16:38.583Z,24.3
2019-02-25T11:17:38.582Z,21.3
2019-02-25T11:18:40.424Z,27.3
2019-02-25T11:19:38.588Z,18.3
2019-02-25T11:20:39.138Z,15.4
2019-02-25T11:21:42.134Z,21.3
2019-02-25T11:22:42.347Z,21.3
2019-02-25T11:23:38.599Z,15.4
2019-02-25T11:24:38.666Z,15.4
2019-02-25T11:25:38.609Z,15.4
2019-02-25T11:26:38.555Z,15.4
2019-02-25T11:27:39.957Z,12.4
2019-02-25T11:28:43.722Z,12.4
2019-02-25T11:29:42.442Z,18.3
2019-02-25T11:30:38.612Z,12.4
2019-02-25T11:31:38.562Z,9.5
2019-02-25T11:32:38.615Z,9.5
2019-02-25T11:33:38.686Z,18.3
2019-02-25T11:34:40.567Z,15.4
2019-02-25T11:35:43.300Z,9.5
2019-02-25T11:36:38.583Z,18.3
2019-02-25T11:37:38.631Z,18.3
2019-02-25T11:38:38.649Z,15.4
2019-02-25T11:39:38.602Z,24.3
2019-02-25T11:40:39.683Z,15.4
2019-02-25T11:41:42.100Z,21.3
2019-02-25T11:42:38.549Z,18.3
2019-02-25T11:43:38.684Z,15.4
2019-02-25T11:44:38.652Z,15.4
2019-02-25T11:45:38.596Z,24.3
2019-02-25T11:46:38.654Z,21.3
2019-02-25T11:47:38.576Z,24.3
2019-02-25T11:48:38.653Z,27.3
2019-02-25T11:49:38.615Z,18.3
2019-02-25T11:50:38.732Z,24.3
2019-02-25T11:51:38.594Z,24.3
2019-02-25T11:52:38.602Z,24.3
2019-02-25T11:53:38.575Z,15.4
2019-02-25T11:54:38.615Z,18.3
2019-02-25T11:55:38.668Z,24.3
2019-02-25T11:56:38.597Z,15.4
2019-02-25T11:57:38.592Z,21.3
2019-02-25T11:58:38.638Z,24.3
2019-02-25T11:59:38.571Z,27.3
2019-02-25T12:00:39.857Z,15.4
2019-02-25T12:01:38.663Z,24.3
2019-02-25T12:02:38.589Z,12.4
2019-02-25T12:03:38.602Z,15.4
2019-02-25T12:04:38.655Z,15.4
2019-02-25T12:05:38.667Z,12.4
2019-02-25T12:06:38.610Z,24.3
2019-02-25T12:07:38.601Z,24.3
2019-02-25T12:08:38.600Z,18.3
2019-02-25T12:09:38.635Z,21.3
2019-02-25T12:10:38.581Z,15.4
2019-02-25T12:11:38.642Z,18.3
2019-02-25T12:12:38.581Z,21.3
2019-02-25T12:13:38.591Z,18.3
2019-02-25T12:14:38.732Z,18.3
2019-02-25T12:15:38.552Z,12.4
2019-02-25T12:16:38.571Z,18.3
2019-02-25T12:17:38.596Z,24.3
2019-02-25T12:18:38.596Z,21.3
2019-02-25T12:19:38.664Z,24.3
2019-02-25T12:20:38.672Z,21.3
2019-02-25T12:21:38.549Z,18.3
2019-02-25T12:22:38.616Z,27.3
2019-02-25T12:23:38.627Z,15.4
2019-02-25T12:24:38.673Z,24.3
2019-02-25T12:25:38.671Z,21.3
2019-02-25T12:26:38.564Z,21.3
2019-02-25T12:27:38.646Z,24.3
2019-02-25T12:28:38.597Z,18.3
2019-02-25T12:29:38.677Z,15.4
2019-02-25T12:30:38.637Z,12.4
2019-02-25T12:31:38.635Z,21.3
2019-02-25T12:32:38.589Z,24.3
2019-02-25T12:33:38.665Z,15.4
2019-02-25T12:34:38.613Z,27.3
2019-02-25T12:35:38.648Z,24.3
2019-02-25T12:36:38.728Z,18.3
2019-02-25T12:37:38.595Z,21.3
2019-02-25T12:38:40.363Z,21.3
2019-02-25T12:39:39.175Z,15.4
2019-02-25T12:40:39.390Z,12.4
2019-02-25T12:41:39.474Z,6.6
2019-02-25T12:42:38.633Z,15.4
2019-02-25T12:43:38.866Z,12.4
2019-02-25T12:44:40.832Z,15.4
2019-02-25T12:45:38.823Z,21.3
2019-02-25T12:46:38.735Z,18.3
2019-02-25T12:47:38.687Z,24.3
2019-02-25T12:48:38.755Z,24.3
2019-02-25T12:49:38.710Z,15.4
2019-02-25T12:50:38.990Z,18.3
2019-02-25T12:51:38.613Z,18.3
2019-02-25T12:52:38.672Z,15.4
2019-02-25T12:53:39.166Z,15.4
2019-02-25T12:54:38.831Z,15.4
2019-02-25T12:55:38.754Z,9.5
2019-02-25T12:56:38.767Z,18.3
2019-02-25T12:57:38.729Z,9.5
2019-02-25T12:58:38.798Z,21.3
2019-02-25T12:59:38.938Z,18.3
2019-02-25T13:00:38.888Z,6.6
2019-02-25T13:01:38.782Z,6.6
2019-02-25T13:02:38.769Z,9.5
2019-02-25T13:03:40.192Z,12.4
2019-02-25T13:04:41.179Z,15.4
2019-02-25T13:05:38.731Z,6.6
2019-02-25T13:06:40.825Z,18.3
2019-02-25T13:07:39.022Z,15.4
2019-02-25T13:08:38.716Z,12.4
2019-02-25T13:09:38.832Z,15.4
2019-02-25T13:10:38.906Z,12.4
2019-02-25T13:11:39.902Z,3.9
2019-02-25T13:12:38.675Z,9.5
2019-02-25T13:13:38.665Z,1.8
2019-02-25T13:14:38.695Z,3.9
2019-02-25T13:15:38.707Z,12.4
2019-02-25T13:16:38.712Z,9.5
2019-02-25T13:17:38.656Z,15.4
2019-02-25T13:18:38.884Z,15.4
2019-02-25T13:19:38.745Z,9.5
2019-02-25T13:20:38.861Z,6.6
2019-02-25T13:21:38.850Z,6.6
2019-02-25T13:22:40.535Z,12.4
2019-02-25T13:23:38.697Z,9.5
2019-02-25T13:24:40.810Z,6.6
2019-02-25T13:25:39.569Z,9.5
2019-02-25T13:26:40.624Z,9.5
2019-02-25T13:27:38.736Z,9.5
2019-02-25T13:28:38.741Z,9.5
2019-02-25T13:29:38.804Z,9.5
2019-02-25T13:30:38.920Z,9.5
2019-02-25T13:31:38.749Z,9.5
2019-02-25T13:32:38.630Z,9.5
2019-02-25T13:33:38.631Z,6.6
2019-02-25T13:34:38.819Z,3.9
2019-02-25T13:35:38.600Z,3.9
2019-02-25T13:36:38.594Z,9.5
2019-02-25T13:37:38.569Z,6.6
2019-02-25T13:38:38.645Z,15.4